sensor_id;sensor_type;location;lat;lon;timestamp;P1;durP1;ratioP1;P2;durP2;ratioP2
11572;SDS011;5842;52.426;4.886;2023-11-21T14:41:46;13.63;;;9.50;;
11572;SDS011;5842;52.426;4.886;2023-11-21T14:47:17;14.30;;;10.45;;
11572;SDS011;5842;52.426;4.886;2023-11-21T14:52:28;14.10;;;10.23;;
11572;SDS011;5842;52.426;4.886;2023-11-21T14:55:38;13.87;;;9.83;;
11572;SDS011;5842;52.426;4.886;2023-11-21T14:58:31;13.32;;;10.20;;
11572;SDS011;5842;52.426;4.886;2023-11-21T15:01:16;14.20;;;10.10;;
11572;SDS011;5842;52.426;4.886;2023-11-21T15:19:35;15.10;;;10.52;;
11572;SDS011;5842;52.426;4.886;2023-11-21T15:22:04;15.07;;;10.77;;
11572;SDS011;5842;52.426;4.886;2023-11-21T15:24:32;14.35;;;10.43;;
11572;SDS011;5842;52.426;4.886;2023-11-21T15:26:59;14.97;;;10.70;;
11572;SDS011;5842;52.426;4.886;2023-11-21T15:32:21;15.05;;;10.48;;
11572;SDS011;5842;52.426;4.886;2023-11-21T15:34:51;14.07;;;9.70;;
11572;SDS011;5842;52.426;4.886;2023-11-21T15:37:21;13.07;;;9.68;;
11572;SDS011;5842;52.426;4.886;2023-11-21T15:39:51;13.13;;;9.35;;
11572;SDS011;5842;52.426;4.886;2023-11-21T15:42:18;13.07;;;8.55;;
11572;SDS011;5842;52.426;4.886;2023-11-21T15:44:46;12.48;;;8.80;;
11572;SDS011;5842;52.426;4.886;2023-11-21T15:47:15;12.73;;;8.13;;
11572;SDS011;5842;52.426;4.886;2023-11-21T15:49:43;11.02;;;8.00;;
11572;SDS011;5842;52.426;4.886;2023-11-21T15:52:14;11.57;;;8.40;;
11572;SDS011;5842;52.426;4.886;2023-11-21T15:54:41;12.18;;;8.73;;
11572;SDS011;5842;52.426;4.886;2023-11-21T15:57:10;12.15;;;8.55;;
11572;SDS011;5842;52.426;4.886;2023-11-21T15:59:39;14.05;;;9.18;;
11572;SDS011;5842;52.426;4.886;2023-11-21T16:02:08;12.23;;;8.50;;
11572;SDS011;5842;52.426;4.886;2023-11-21T16:04:36;12.98;;;9.00;;
11572;SDS011;5842;52.426;4.886;2023-11-21T16:10:42;12.67;;;8.80;;
11572;SDS011;5842;52.426;4.886;2023-11-21T16:13:14;12.27;;;8.70;;
11572;SDS011;5842;52.426;4.886;2023-11-21T16:15:47;14.80;;;8.82;;
11572;SDS011;5842;52.426;4.886;2023-11-21T16:18:39;13.57;;;9.30;;
11572;SDS011;5842;52.426;4.886;2023-11-21T16:25:07;13.27;;;8.65;;
11572;SDS011;5842;52.426;4.886;2023-11-21T16:27:48;12.82;;;8.27;;
11572;SDS011;5842;52.426;4.886;2023-11-21T16:30:16;13.10;;;8.48;;
11572;SDS011;5842;52.426;4.886;2023-11-21T16:32:48;13.48;;;8.43;;
11572;SDS011;5842;52.426;4.886;2023-11-21T16:35:16;12.13;;;7.97;;
11572;SDS011;5842;52.426;4.886;2023-11-21T16:37:44;12.10;;;7.75;;
11572;SDS011;5842;52.426;4.886;2023-11-21T16:40:13;12.70;;;8.60;;
11572;SDS011;5842;52.426;4.886;2023-11-21T16:42:45;13.45;;;8.98;;
11572;SDS011;5842;52.426;4.886;2023-11-21T16:48:40;13.73;;;9.07;;
11572;SDS011;5842;52.426;4.886;2023-11-21T16:52:05;15.68;;;9.02;;
11572;SDS011;5842;52.426;4.886;2023-11-21T16:57:46;13.82;;;8.70;;
11572;SDS011;5842;52.426;4.886;2023-11-21T17:00:13;13.32;;;8.45;;
11572;SDS011;5842;52.426;4.886;2023-11-21T17:02:44;13.73;;;8.55;;
11572;SDS011;5842;52.426;4.886;2023-11-21T17:05:19;13.18;;;8.65;;
11572;SDS011;5842;52.426;4.886;2023-11-21T17:07:54;12.57;;;8.13;;
11572;SDS011;5842;52.426;4.886;2023-11-21T17:10:27;13.13;;;7.82;;
11572;SDS011;5842;52.426;4.886;2023-11-21T17:13:02;14.30;;;8.88;;
11572;SDS011;5842;52.426;4.886;2023-11-21T17:15:36;13.98;;;9.02;;
11572;SDS011;5842;52.426;4.886;2023-11-21T17:18:07;13.55;;;8.98;;
11572;SDS011;5842;52.426;4.886;2023-11-21T17:20:44;12.82;;;8.80;;
11572;SDS011;5842;52.426;4.886;2023-11-21T17:23:16;13.50;;;9.27;;
11572;SDS011;5842;52.426;4.886;2023-11-21T17:25:52;13.60;;;8.68;;
11572;SDS011;5842;52.426;4.886;2023-11-21T17:28:20;13.18;;;8.55;;
11572;SDS011;5842;52.426;4.886;2023-11-21T17:30:47;13.93;;;8.70;;
11572;SDS011;5842;52.426;4.886;2023-11-21T17:33:15;14.70;;;9.13;;
11572;SDS011;5842;52.426;4.886;2023-11-21T17:35:44;14.90;;;9.23;;
11572;SDS011;5842;52.426;4.886;2023-11-21T17:38:12;15.18;;;9.40;;
11572;SDS011;5842;52.426;4.886;2023-11-21T17:40:41;13.82;;;9.02;;
11572;SDS011;5842;52.426;4.886;2023-11-21T17:43:10;15.70;;;9.90;;
11572;SDS011;5842;52.426;4.886;2023-11-21T17:45:38;14.25;;;9.60;;
11572;SDS011;5842;52.426;4.886;2023-11-21T17:48:05;14.48;;;9.30;;
11572;SDS011;5842;52.426;4.886;2023-11-21T17:50:33;15.68;;;9.40;;
11572;SDS011;5842;52.426;4.886;2023-11-21T17:53:02;13.97;;;9.53;;
11572;SDS011;5842;52.426;4.886;2023-11-21T17:55:30;15.35;;;9.82;;
11572;SDS011;5842;52.426;4.886;2023-11-21T17:57:57;15.00;;;9.35;;
11572;SDS011;5842;52.426;4.886;2023-11-21T18:00:26;16.58;;;10.02;;
11572;SDS011;5842;52.426;4.886;2023-11-21T18:02:53;16.13;;;10.20;;
11572;SDS011;5842;52.426;4.886;2023-11-21T18:05:21;16.25;;;9.95;;
11572;SDS011;5842;52.426;4.886;2023-11-21T18:07:48;17.20;;;9.95;;
11572;SDS011;5842;52.426;4.886;2023-11-21T18:10:18;15.57;;;10.13;;
11572;SDS011;5842;52.426;4.886;2023-11-21T18:12:46;18.63;;;10.65;;
11572;SDS011;5842;52.426;4.886;2023-11-21T18:15:13;17.02;;;10.70;;
11572;SDS011;5842;52.426;4.886;2023-11-21T18:17:43;19.75;;;11.55;;
11572;SDS011;5842;52.426;4.886;2023-11-21T18:20:11;20.67;;;12.00;;
11572;SDS011;5842;52.426;4.886;2023-11-21T18:22:39;19.13;;;11.10;;
11572;SDS011;5842;52.426;4.886;2023-11-21T18:25:07;19.17;;;11.48;;
11572;SDS011;5842;52.426;4.886;2023-11-21T18:27:35;19.60;;;11.38;;
11572;SDS011;5842;52.426;4.886;2023-11-21T18:30:03;18.85;;;11.55;;
11572;SDS011;5842;52.426;4.886;2023-11-21T18:32:31;20.95;;;11.90;;
11572;SDS011;5842;52.426;4.886;2023-11-21T18:34:58;19.92;;;11.52;;
11572;SDS011;5842;52.426;4.886;2023-11-21T18:37:26;21.80;;;12.10;;
11572;SDS011;5842;52.426;4.886;2023-11-21T18:39:53;21.70;;;12.03;;
11572;SDS011;5842;52.426;4.886;2023-11-21T18:42:21;20.95;;;12.07;;
11572;SDS011;5842;52.426;4.886;2023-11-21T18:45:06;22.58;;;12.88;;
11572;SDS011;5842;52.426;4.886;2023-11-21T18:47:55;20.65;;;12.57;;
11572;SDS011;5842;52.426;4.886;2023-11-21T18:53:13;24.10;;;12.80;;
11572;SDS011;5842;52.426;4.886;2023-11-21T18:55:41;23.30;;;12.90;;
11572;SDS011;5842;52.426;4.886;2023-11-21T18:58:09;20.67;;;12.13;;
11572;SDS011;5842;52.426;4.886;2023-11-21T19:00:38;21.63;;;12.38;;
11572;SDS011;5842;52.426;4.886;2023-11-21T19:03:06;21.43;;;12.63;;
11572;SDS011;5842;52.426;4.886;2023-11-21T19:05:38;21.30;;;11.90;;
11572;SDS011;5842;52.426;4.886;2023-11-21T19:08:05;20.90;;;12.30;;
11572;SDS011;5842;52.426;4.886;2023-11-21T19:10:33;22.05;;;11.63;;
11572;SDS011;5842;52.426;4.886;2023-11-21T19:13:02;23.38;;;12.38;;
11572;SDS011;5842;52.426;4.886;2023-11-21T19:15:30;21.65;;;12.02;;
11572;SDS011;5842;52.426;4.886;2023-11-21T19:17:59;21.25;;;12.18;;
11572;SDS011;5842;52.426;4.886;2023-11-21T19:20:27;22.60;;;12.18;;
11572;SDS011;5842;52.426;4.886;2023-11-21T19:22:54;20.25;;;11.68;;
11572;SDS011;5842;52.426;4.886;2023-11-21T19:25:25;19.42;;;11.63;;
11572;SDS011;5842;52.426;4.886;2023-11-21T19:28:07;20.10;;;11.40;;
11572;SDS011;5842;52.426;4.886;2023-11-21T19:30:34;22.75;;;12.63;;
11572;SDS011;5842;52.426;4.886;2023-11-21T19:33:06;23.17;;;12.90;;
11572;SDS011;5842;52.426;4.886;2023-11-21T19:35:34;22.42;;;12.63;;
11572;SDS011;5842;52.426;4.886;2023-11-21T19:38:03;24.70;;;13.20;;
11572;SDS011;5842;52.426;4.886;2023-11-21T19:40:31;22.48;;;13.55;;
11572;SDS011;5842;52.426;4.886;2023-11-21T19:43:15;22.23;;;12.55;;
11572;SDS011;5842;52.426;4.886;2023-11-21T19:45:43;23.52;;;12.90;;
11572;SDS011;5842;52.426;4.886;2023-11-21T19:48:12;23.45;;;12.32;;
11572;SDS011;5842;52.426;4.886;2023-11-21T19:50:42;21.15;;;12.05;;
11572;SDS011;5842;52.426;4.886;2023-11-21T19:53:10;19.88;;;11.63;;
11572;SDS011;5842;52.426;4.886;2023-11-21T19:58:28;19.97;;;11.53;;
11572;SDS011;5842;52.426;4.886;2023-11-21T20:00:56;21.30;;;12.63;;
11572;SDS011;5842;52.426;4.886;2023-11-21T20:06:00;22.85;;;12.00;;
11572;SDS011;5842;52.426;4.886;2023-11-21T20:08:28;22.00;;;12.32;;
11572;SDS011;5842;52.426;4.886;2023-11-21T20:10:58;21.73;;;12.63;;
11572;SDS011;5842;52.426;4.886;2023-11-21T20:15:52;23.30;;;12.25;;
11572;SDS011;5842;52.426;4.886;2023-11-21T20:18:20;20.92;;;12.00;;
11572;SDS011;5842;52.426;4.886;2023-11-21T20:20:48;22.50;;;11.65;;
11572;SDS011;5842;52.426;4.886;2023-11-21T20:23:17;19.60;;;11.00;;
11572;SDS011;5842;52.426;4.886;2023-11-21T20:28:22;16.52;;;10.52;;
11572;SDS011;5842;52.426;4.886;2023-11-21T20:30:52;17.27;;;10.17;;
11572;SDS011;5842;52.426;4.886;2023-11-21T20:33:19;16.73;;;10.27;;
11572;SDS011;5842;52.426;4.886;2023-11-21T20:35:47;14.52;;;9.65;;
11572;SDS011;5842;52.426;4.886;2023-11-21T20:38:14;17.58;;;10.18;;
11572;SDS011;5842;52.426;4.886;2023-11-21T20:40:43;15.80;;;9.85;;
11572;SDS011;5842;52.426;4.886;2023-11-21T20:43:10;16.48;;;9.75;;
11572;SDS011;5842;52.426;4.886;2023-11-21T20:45:40;15.07;;;9.45;;
11572;SDS011;5842;52.426;4.886;2023-11-21T20:48:08;13.13;;;8.85;;
11572;SDS011;5842;52.426;4.886;2023-11-21T20:50:36;13.45;;;8.82;;
11572;SDS011;5842;52.426;4.886;2023-11-21T20:53:04;13.02;;;8.35;;
